Terminal Aerodrome Forecast
Issued by NWS Tulsa, OK

Home | Current Version | Previous Version | Text Only | Print | Product List | Glossary On
Versions: 1 2 3 4 5 6 7 8 9 10 11 12 13 14 15 16 17 18
000
FTUS44 KTSA 230520
TAFFSM
TAF
KFSM 230520Z 2306/2406 09004KT 3SM BR OVC005
     FM231800 09004KT 3SM -RA BR OVC007
      TEMPO 2318/2322 2SM -TSRA BKN005CB=

USA.gov is the U.S. government's official web portal to all federal, state and local government web resources and services.